Time;durP1;ratioP1;P1;durP2;ratioP2;P2;SDS_P1;SDS_P2;PMS_P1;PMS_P2;Temp;Humidity;BMP_temperature;BMP_pressure;BME280_temperature;BME280_humidity;BME280_pressure;Samples;Min_cycle;Max_cycle;Signal;HPM_P1;HPM_P2
2023/11/06 00:00:09;;;;;;;0.37;0.30;;;7.70;99.90;;;;;;5057122;28;20449;-82
2023/11/06 00:02:36;;;;;;;0.40;0.40;;;7.70;99.90;;;;;;5057785;28;20438;-82
2023/11/06 00:05:04;;;;;;;0.50;0.50;;;7.80;99.90;;;;;;5056392;28;20878;-81
2023/11/06 00:07:31;;;;;;;0.30;0.30;;;7.80;99.90;;;;;;5056705;28;20482;-81
2023/11/06 00:09:58;;;;;;;0.40;0.40;;;7.70;99.90;;;;;;5056201;28;20456;-82
2023/11/06 00:12:26;;;;;;;0.30;0.30;;;7.60;99.90;;;;;;5055224;28;20446;-82
2023/11/06 00:14:54;;;;;;;0.30;0.30;;;7.70;99.90;;;;;;5055365;28;20466;-82
2023/11/06 00:17:22;;;;;;;0.30;0.30;;;7.70;99.90;;;;;;5055264;28;20973;-82
2023/11/06 00:19:49;;;;;;;0.70;0.70;;;7.60;99.90;;;;;;5055053;28;20458;-81
2023/11/06 00:22:17;;;;;;;0.43;0.43;;;7.60;99.90;;;;;;5055244;28;20452;-82
2023/11/06 00:24:44;;;;;;;0.30;0.27;;;7.60;99.90;;;;;;5055510;28;20478;-82
2023/11/06 00:27:11;;;;;;;0.30;0.30;;;7.70;99.90;;;;;;5055484;28;20484;-81
2023/11/06 00:29:40;;;;;;;0.37;0.37;;;7.70;99.90;;;;;;5055169;28;20445;-81
2023/11/06 00:32:08;;;;;;;3.30;0.60;;;7.60;99.90;;;;;;5055123;28;20457;-81
2023/11/06 00:34:35;;;;;;;2.20;0.40;;;7.60;99.90;;;;;;5055534;28;20473;-81
2023/11/06 00:37:03;;;;;;;0.93;0.43;;;7.70;99.90;;;;;;5055785;28;20454;-81
2023/11/06 00:39:30;;;;;;;0.30;0.30;;;7.70;99.90;;;;;;5055525;28;20440;-82
2023/11/06 00:41:56;;;;;;;0.70;0.30;;;7.60;99.90;;;;;;5055506;28;20563;-82
2023/11/06 00:44:23;;;;;;;0.30;0.30;;;7.60;99.90;;;;;;5055822;28;20473;-81
2023/11/06 00:46:50;;;;;;;3.70;0.60;;;7.60;99.90;;;;;;5056145;28;20793;-81
2023/11/06 00:49:18;;;;;;;3.17;0.40;;;7.60;99.90;;;;;;5056633;28;20488;-82
2023/11/06 00:51:45;;;;;;;0.40;0.40;;;7.60;99.90;;;;;;5055721;28;20461;-81
2023/11/06 00:54:11;;;;;;;0.40;0.30;;;7.60;99.90;;;;;;5056059;28;20462;-81
2023/11/06 00:56:38;;;;;;;0.37;0.33;;;9.00;99.90;;;;;;5056123;28;20504;-82
2023/11/06 00:59:05;;;;;;;0.30;0.30;;;7.50;99.90;;;;;;5057369;28;20937;-81
2023/11/06 01:01:32;;;;;;;0.30;0.30;;;7.40;99.90;;;;;;5057783;28;20930;-81
2023/11/06 01:03:59;;;;;;;0.30;0.30;;;7.40;99.90;;;;;;5058479;28;20548;-82
2023/11/06 01:06:27;;;;;;;0.40;0.33;;;7.40;99.90;;;;;;5057158;28;20446;-82
2023/11/06 01:08:54;;;;;;;3.07;0.33;;;7.40;99.90;;;;;;5058592;28;20481;-82
2023/11/06 01:11:21;;;;;;;1.10;0.60;;;7.50;99.90;;;;;;5059435;28;20449;-82
2023/11/06 01:13:49;;;;;;;0.30;0.30;;;7.40;99.90;;;;;;5059565;28;20472;-82
2023/11/06 01:16:17;;;;;;;0.30;0.30;;;7.40;99.90;;;;;;5059761;28;20517;-82
2023/11/06 01:18:44;;;;;;;0.30;0.30;;;7.40;99.90;;;;;;5062867;28;20449;-82
2023/11/06 01:21:11;;;;;;;0.40;0.40;;;7.40;99.90;;;;;;5062763;28;20501;-82
2023/11/06 01:23:39;;;;;;;0.53;0.53;;;7.40;99.90;;;;;;5061577;28;20952;-82
2023/11/06 01:26:07;;;;;;;1.23;0.60;;;7.60;99.90;;;;;;5071410;28;20446;-82
2023/11/06 01:28:34;;;;;;;0.70;0.50;;;7.40;99.90;;;;;;5074413;28;20485;-81
2023/11/06 01:31:02;;;;;;;1.03;0.33;;;7.40;99.90;;;;;;5069061;28;20902;-82
2023/11/06 01:33:29;;;;;;;0.67;0.40;;;7.40;99.90;;;;;;5066768;28;20442;-81
2023/11/06 01:35:55;;;;;;;0.30;0.30;;;7.40;99.90;;;;;;5068445;28;20504;-82
2023/11/06 01:38:22;;;;;;;2.00;0.30;;;7.40;99.90;;;;;;5066560;28;20456;-82
2023/11/06 01:40:50;;;;;;;0.30;0.20;;;7.40;99.90;;;;;;5066584;28;20481;-82
2023/11/06 01:43:24;;;;;;;0.30;0.30;;;7.30;99.90;;;;;;5066145;28;20953;-82
2023/11/06 01:45:51;;;;;;;0.40;0.40;;;;;;;;;;5064541;28;20448;-82
2023/11/06 01:48:19;;;;;;;0.30;0.30;;;7.30;99.90;;;;;;5068591;28;20883;-82
2023/11/06 01:50:46;;;;;;;0.30;0.20;;;7.30;99.90;;;;;;5066986;28;20453;-82
2023/11/06 01:53:15;;;;;;;0.30;0.30;;;7.30;99.90;;;;;;5068516;28;20450;-82
2023/11/06 01:55:42;;;;;;;0.50;0.40;;;7.30;99.90;;;;;;5067470;28;20472;-81
2023/11/06 01:58:12;;;;;;;0.40;0.40;;;7.30;99.90;;;;;;5067206;28;20453;-81
2023/11/06 02:00:41;;;;;;;0.30;0.20;;;7.30;99.90;;;;;;5064363;28;20445;-82
2023/11/06 02:03:08;;;;;;;0.30;0.30;;;7.40;99.90;;;;;;5067016;28;20446;-81
2023/11/06 02:05:36;;;;;;;1.90;0.30;;;7.40;99.90;;;;;;5065257;28;20576;-81
2023/11/06 02:08:04;;;;;;;0.30;0.30;;;7.40;99.90;;;;;;5061707;28;20486;-82
2023/11/06 02:10:32;;;;;;;0.40;0.30;;;7.40;99.90;;;;;;5062776;28;20449;-81
2023/11/06 02:12:58;;;;;;;0.30;0.20;;;7.40;99.90;;;;;;5061228;28;20858;-81
2023/11/06 02:15:28;;;;;;;0.40;0.30;;;7.40;99.90;;;;;;5062679;28;20544;-81
2023/11/06 02:17:55;;;;;;;0.30;0.27;;;7.50;99.90;;;;;;5063106;28;20938;-81
2023/11/06 02:20:23;;;;;;;0.30;0.20;;;7.50;99.90;;;;;;5064409;28;20446;-81
2023/11/06 02:22:52;;;;;;;0.40;0.40;;;7.40;99.90;;;;;;5063159;28;20449;-82
2023/11/06 02:25:23;;;;;;;0.30;0.20;;;7.40;99.90;;;;;;5062807;28;20458;-81
2023/11/06 02:27:49;;;;;;;0.40;0.30;;;7.30;99.90;;;;;;5060534;28;21019;-80
2023/11/06 02:30:16;;;;;;;0.30;0.30;;;7.30;99.90;;;;;;5060771;28;20437;-81
2023/11/06 02:32:43;;;;;;;0.57;0.30;;;7.30;99.90;;;;;;5061387;28;20818;-81
2023/11/06 02:35:09;;;;;;;0.40;0.33;;;7.30;99.90;;;;;;5059376;28;21000;-81
2023/11/06 02:37:36;;;;;;;2.53;0.30;;;7.30;99.90;;;;;;5059898;28;20452;-82
2023/11/06 02:40:06;;;;;;;0.37;0.30;;;7.20;99.90;;;;;;5059015;28;20481;-81
2023/11/06 02:42:34;;;;;;;0.30;0.20;;;7.20;99.90;;;;;;5060439;28;20841;-82
2023/11/06 02:45:02;;;;;;;2.97;0.30;;;7.20;99.90;;;;;;5060098;28;20476;-83
2023/11/06 02:47:28;;;;;;;0.40;0.40;;;7.20;99.90;;;;;;5060425;28;20811;-82
2023/11/06 02:49:55;;;;;;;0.30;0.30;;;7.20;99.90;;;;;;5060970;28;20490;-82
2023/11/06 02:52:22;;;;;;;0.70;0.40;;;7.20;99.90;;;;;;5062428;28;20821;-82
2023/11/06 02:54:49;;;;;;;1.47;0.40;;;7.20;99.90;;;;;;5065702;28;20474;-82
2023/11/06 02:57:15;;;;;;;0.30;0.30;;;7.10;99.90;;;;;;5064053;28;20446;-82
2023/11/06 02:59:44;;;;;;;0.40;0.40;;;7.10;99.90;;;;;;5062956;28;20452;-82
2023/11/06 03:02:10;;;;;;;1.17;0.97;;;7.10;99.90;;;;;;5062037;28;20457;-82
2023/11/06 03:04:37;;;;;;;0.30;0.20;;;7.10;99.90;;;;;;5066949;28;20823;-82
2023/11/06 03:07:04;;;;;;;0.30;0.30;;;7.40;99.90;;;;;;5062313;28;20452;-82
2023/11/06 03:09:31;;;;;;;0.60;0.60;;;7.10;99.90;;;;;;5065488;28;20845;-82
2023/11/06 03:11:58;;;;;;;0.73;0.30;;;7.00;99.90;;;;;;5064562;28;20449;-82
2023/11/06 03:14:25;;;;;;;6.57;0.57;;;7.00;99.90;;;;;;5064014;28;20981;-81
2023/11/06 03:16:53;;;;;;;0.30;0.20;;;7.00;99.90;;;;;;5060503;28;20430;-80
2023/11/06 03:19:20;;;;;;;0.53;0.40;;;7.10;99.90;;;;;;5058666;28;20437;-81
2023/11/06 03:21:48;;;;;;;2.30;0.60;;;7.10;99.90;;;;;;5057228;28;20525;-81
2023/11/06 03:24:15;;;;;;;0.30;0.30;;;7.10;99.90;;;;;;5057879;28;20552;-81
2023/11/06 03:26:41;;;;;;;0.30;0.30;;;7.00;99.90;;;;;;5056673;28;20461;-81
2023/11/06 03:29:08;;;;;;;2.33;0.40;;;7.10;99.90;;;;;;5056085;28;20477;-81
2023/11/06 03:31:35;;;;;;;0.80;0.30;;;7.10;99.90;;;;;;5056953;28;20446;-81
2023/11/06 03:34:05;;;;;;;0.47;0.47;;;7.10;99.90;;;;;;5056770;28;20978;-81
2023/11/06 03:36:32;;;;;;;0.30;0.20;;;7.20;99.90;;;;;;5056332;28;20470;-80
2023/11/06 03:38:58;;;;;;;0.30;0.20;;;7.30;99.90;;;;;;5058398;28;20448;-82
2023/11/06 03:41:25;;;;;;;0.40;0.30;;;7.20;99.90;;;;;;5056969;28;20470;-81
2023/11/06 03:43:52;;;;;;;0.30;0.30;;;7.20;99.90;;;;;;5056121;28;20470;-81
2023/11/06 03:46:20;;;;;;;0.70;0.50;;;7.30;99.90;;;;;;5056091;28;20788;-80
2023/11/06 03:48:46;;;;;;;0.30;0.30;;;7.40;99.90;;;;;;5055420;28;20846;-81
2023/11/06 03:51:15;;;;;;;0.30;0.30;;;7.80;99.90;;;;;;5055701;28;20438;-80
2023/11/06 03:53:42;;;;;;;2.63;0.30;;;7.60;99.90;;;;;;5055929;28;20445;-81
2023/11/06 03:56:09;;;;;;;0.53;0.43;;;9.60;99.90;;;;;;5056265;28;20495;-80
2023/11/06 03:58:36;;;;;;;1.53;0.43;;;7.60;99.90;;;;;;5055262;28;20492;-80
2023/11/06 04:01:03;;;;;;;0.30;0.30;;;7.60;99.90;;;;;;5055342;28;20866;-80
2023/11/06 04:03:30;;;;;;;14.53;0.70;;;7.60;99.90;;;;;;5054867;28;20445;-81
2023/11/06 04:05:58;;;;;;;0.40;0.30;;;7.50;99.90;;;;;;5055328;28;20464;-80
2023/11/06 04:08:27;;;;;;;0.30;0.30;;;8.10;99.90;;;;;;5056426;28;20572;-80
2023/11/06 04:10:53;;;;;;;1.40;0.50;;;7.50;99.90;;;;;;5056067;28;20441;-80
2023/11/06 04:13:20;;;;;;;2.37;0.47;;;8.70;99.90;;;;;;5054590;28;20965;-80
2023/11/06 04:15:47;;;;;;;0.30;0.20;;;7.40;99.90;;;;;;5055097;28;20474;-80
2023/11/06 04:18:14;;;;;;;0.30;0.30;;;;;;;;;;5055335;28;20449;-80
2023/11/06 04:20:41;;;;;;;0.50;0.40;;;7.40;99.90;;;;;;5055404;28;20434;-80
2023/11/06 04:23:08;;;;;;;0.30;0.30;;;7.40;99.90;;;;;;5055232;28;20437;-80
2023/11/06 04:25:37;;;;;;;0.30;0.20;;;7.40;99.90;;;;;;5054621;28;20454;-80
2023/11/06 04:28:04;;;;;;;0.80;0.63;;;8.90;99.90;;;;;;5054814;28;20857;-80
2023/11/06 04:30:31;;;;;;;0.30;0.30;;;7.40;99.90;;;;;;5054829;28;20474;-80
2023/11/06 04:32:59;;;;;;;0.40;0.30;;;7.40;99.90;;;;;;5060564;28;20821;-80
2023/11/06 04:35:26;;;;;;;1.47;0.33;;;7.40;99.90;;;;;;5056680;28;20553;-80
2023/11/06 04:37:53;;;;;;;0.30;0.23;;;7.30;99.90;;;;;;5056665;28;20434;-81
2023/11/06 04:40:21;;;;;;;0.40;0.37;;;7.20;99.90;;;;;;5057512;28;20477;-81
2023/11/06 04:42:49;;;;;;;0.30;0.30;;;7.20;99.90;;;;;;5058657;28;20442;-81
2023/11/06 04:45:16;;;;;;;0.63;0.40;;;7.20;99.90;;;;;;5058531;28;20454;-81
2023/11/06 04:47:43;;;;;;;1.47;0.73;;;7.20;99.90;;;;;;5058623;28;20445;-81
2023/11/06 04:50:10;;;;;;;0.30;0.30;;;7.20;99.90;;;;;;5056267;28;20485;-80
2023/11/06 04:52:37;;;;;;;0.30;0.30;;;7.10;99.90;;;;;;5054836;28;20438;-80
2023/11/06 04:55:05;;;;;;;0.30;0.20;;;7.00;99.90;;;;;;5055466;28;20965;-80
2023/11/06 04:57:32;;;;;;;0.30;0.23;;;7.00;99.90;;;;;;5054432;28;20445;-80
2023/11/06 05:00:00;;;;;;;0.40;0.30;;;7.00;99.90;;;;;;5053335;28;20445;-80
2023/11/06 05:02:27;;;;;;;0.60;0.47;;;7.10;99.90;;;;;;5054369;28;20838;-80
2023/11/06 05:04:54;;;;;;;0.30;0.30;;;7.10;99.90;;;;;;5054600;28;20973;-80
2023/11/06 05:07:21;;;;;;;0.50;0.30;;;7.10;99.90;;;;;;5055384;28;20528;-80
2023/11/06 05:09:48;;;;;;;0.30;0.27;;;7.10;99.90;;;;;;5054955;28;20481;-80
2023/11/06 05:12:15;;;;;;;0.80;0.30;;;7.20;99.90;;;;;;5054345;28;20931;-80
2023/11/06 05:14:42;;;;;;;0.40;0.30;;;8.70;99.90;;;;;;5054416;28;20499;-80
2023/11/06 05:17:10;;;;;;;0.30;0.30;;;7.30;99.90;;;;;;5054663;28;20476;-80
2023/11/06 05:19:41;;;;;;;0.40;0.30;;;7.40;99.90;;;;;;5054878;28;20492;-81
2023/11/06 05:22:08;;;;;;;0.30;0.30;;;7.50;99.90;;;;;;5054402;28;20488;-80
2023/11/06 05:24:35;;;;;;;0.30;0.20;;;8.90;99.90;;;;;;5053994;28;20454;-80
2023/11/06 05:27:02;;;;;;;0.40;0.30;;;7.50;99.90;;;;;;5053867;28;20488;-81
2023/11/06 05:29:29;;;;;;;0.40;0.30;;;9.30;99.90;;;;;;5053462;28;20474;-81
2023/11/06 05:31:56;;;;;;;3.23;0.40;;;7.50;99.90;;;;;;5053714;28;20434;-81
2023/11/06 05:34:24;;;;;;;0.30;0.20;;;7.40;99.90;;;;;;5053823;28;20462;-81
2023/11/06 05:36:51;;;;;;;0.30;0.30;;;7.40;99.90;;;;;;5056169;28;20435;-82
2023/11/06 05:39:18;;;;;;;0.30;0.30;;;7.40;99.90;;;;;;5055020;28;20449;-82
2023/11/06 05:45:08;;;;;;;0.30;0.30;;;7.30;99.90;;;;;;5062609;28;20420;-82
2023/11/06 05:47:37;;;;;;;0.30;0.30;;;;;;;;;;5059895;28;20449;-82
2023/11/06 05:50:08;;;;;;;0.40;0.30;;;7.10;99.90;;;;;;5060400;28;20492;-82
2023/11/06 05:55:39;;;;;;;0.30;0.30;;;7.10;99.90;;;;;;5063362;28;20452;-81
2023/11/06 05:58:07;;;;;;;0.30;0.30;;;7.10;99.90;;;;;;5061713;28;20462;-82
2023/11/06 07:01:52;;;;;;;0.30;0.20;;;7.10;99.90;;;;;;5046481;28;20817;-82
2023/11/06 07:21:30;;;;;;;0.30;0.30;;;7.50;99.90;;;;;;4945553;29;20820;-82
2023/11/06 07:23:57;;;;;;;1.13;0.40;;;7.60;99.90;;;;;;5026976;28;20475;-81
2023/11/06 07:26:24;;;;;;;0.40;0.40;;;7.70;99.90;;;;;;5036600;28;20430;-81
2023/11/06 07:28:51;;;;;;;0.70;0.30;;;7.80;99.90;;;;;;5036481;28;20453;-81
2023/11/06 07:31:17;;;;;;;0.40;0.30;;;7.90;99.90;;;;;;5036104;28;20453;-82
2023/11/06 07:33:44;;;;;;;0.47;0.33;;;7.90;99.90;;;;;;5035863;28;20447;-82
2023/11/06 07:36:11;;;;;;;0.30;0.30;;;7.90;99.90;;;;;;5036257;28;20450;-82
2023/11/06 07:38:39;;;;;;;0.40;0.30;;;8.50;99.90;;;;;;5038325;28;20474;-82
2023/11/06 07:41:10;;;;;;;0.30;0.30;;;8.60;99.90;;;;;;5047950;28;20482;-82
2023/11/06 07:43:37;;;;;;;0.60;0.30;;;;;;;;;;5056328;28;20418;-82
2023/11/06 07:46:05;;;;;;;0.30;0.30;;;7.90;99.90;;;;;;5055930;28;20934;-80
2023/11/06 07:48:32;;;;;;;0.40;0.40;;;;;;;;;;5056010;28;20453;-82
2023/11/06 07:50:58;;;;;;;0.30;0.20;;;8.00;99.90;;;;;;5056205;28;20523;-83
2023/11/06 07:53:25;;;;;;;1.60;0.97;;;8.10;99.90;;;;;;5057286;28;20450;-81
2023/11/06 07:55:53;;;;;;;0.30;0.30;;;8.20;99.90;;;;;;5056792;28;20416;-81
2023/11/06 07:58:20;;;;;;;2.10;0.40;;;;;;;;;;5057054;28;20430;-81
2023/11/06 08:00:47;;;;;;;0.30;0.27;;;8.40;99.90;;;;;;5056870;28;20453;-81
2023/11/06 08:03:14;;;;;;;0.63;0.30;;;8.50;99.90;;;;;;5060696;28;20459;-84
2023/11/06 08:05:41;;;;;;;0.30;0.30;;;8.50;99.90;;;;;;5056302;28;20454;-83
2023/11/06 08:08:08;;;;;;;0.40;0.40;;;8.50;99.90;;;;;;5056967;28;20500;-81
2023/11/06 08:10:35;;;;;;;0.40;0.40;;;8.60;99.90;;;;;;5057630;28;20481;-81
2023/11/06 08:13:03;;;;;;;0.70;0.30;;;9.60;99.90;;;;;;5058016;28;20454;-81
2023/11/06 08:15:30;;;;;;;0.30;0.30;;;8.70;99.90;;;;;;5057885;28;20458;-82
2023/11/06 08:17:57;;;;;;;2.00;0.47;;;;;;;;;;5057879;28;20434;-81
2023/11/06 08:20:26;;;;;;;0.40;0.30;;;;;;;;;;5057203;28;20437;-82
2023/11/06 08:22:53;;;;;;;0.40;0.40;;;;;;;;;;5057666;28;20442;-82
2023/11/06 08:25:24;;;;;;;0.30;0.30;;;9.10;99.90;;;;;;5056965;28;20828;-82
2023/11/06 08:27:52;;;;;;;0.50;0.30;;;9.20;99.90;;;;;;5057196;28;20432;-82
2023/11/06 08:30:20;;;;;;;0.40;0.30;;;9.20;99.90;;;;;;5057090;28;20584;-82
2023/11/06 08:32:47;;;;;;;0.30;0.30;;;11.80;99.90;;;;;;5056898;28;20449;-82
2023/11/06 08:35:14;;;;;;;0.60;0.30;;;9.50;99.90;;;;;;5059364;28;20453;-82
2023/11/06 08:37:40;;;;;;;0.73;0.30;;;9.70;99.90;;;;;;5059030;28;20449;-82
2023/11/06 08:40:08;;;;;;;0.30;0.30;;;9.70;99.90;;;;;;5059797;28;20480;-83
2023/11/06 08:42:37;;;;;;;0.40;0.40;;;9.80;99.90;;;;;;5060404;28;20446;-82
2023/11/06 08:45:04;;;;;;;0.80;0.50;;;9.90;99.90;;;;;;5058544;28;20473;-82
2023/11/06 08:47:32;;;;;;;0.73;0.33;;;10.00;99.90;;;;;;5058573;28;20812;-83
2023/11/06 08:49:59;;;;;;;0.83;0.50;;;10.20;99.90;;;;;;5058444;28;20977;-82
2023/11/06 08:52:26;;;;;;;0.30;0.30;;;10.20;99.90;;;;;;5059192;28;20525;-83
2023/11/06 08:54:53;;;;;;;0.40;0.40;;;10.80;99.90;;;;;;5058774;28;20466;-83
2023/11/06 08:57:21;;;;;;;3.03;0.50;;;10.40;99.90;;;;;;5059774;28;20946;-83
2023/11/06 08:59:48;;;;;;;0.40;0.30;;;10.40;99.90;;;;;;5058518;28;20989;-82
2023/11/06 09:02:15;;;;;;;0.40;0.40;;;13.00;99.90;;;;;;5058202;28;20520;-82
2023/11/06 09:04:45;;;;;;;0.30;0.20;;;10.80;99.90;;;;;;5057796;28;20473;-82
2023/11/06 09:07:14;;;;;;;0.40;0.40;;;;;;;;;;5057217;28;20436;-81
2023/11/06 09:09:40;;;;;;;0.40;0.33;;;11.30;99.90;;;;;;5057458;28;20819;-83
2023/11/06 09:12:08;;;;;;;1.40;0.67;;;11.60;99.90;;;;;;5057902;28;20496;-82
2023/11/06 09:14:34;;;;;;;0.30;0.30;;;13.10;99.90;;;;;;5079678;22;20474;-77
2023/11/06 09:17:02;;;;;;;0.50;0.50;;;13.10;99.90;;;;;;5051587;28;20430;-77
2023/11/06 09:19:29;;;;;;;0.50;0.30;;;13.60;99.90;;;;;;5054240;28;20449;-77
2023/11/06 09:21:57;;;;;;;0.50;0.40;;;13.60;99.90;;;;;;5053621;28;20438;-77
2023/11/06 09:24:24;;;;;;;0.40;0.30;;;13.70;99.90;;;;;;5053272;28;20445;-77
2023/11/06 09:26:50;;;;;;;0.30;0.30;;;13.60;99.90;;;;;;5053256;28;20469;-77
2023/11/06 09:29:18;;;;;;;1.10;0.50;;;13.60;99.90;;;;;;5052890;28;20930;-77
2023/11/06 09:31:45;;;;;;;0.40;0.30;;;13.80;99.90;;;;;;5053085;28;20504;-78
2023/11/06 09:34:12;;;;;;;0.57;0.37;;;13.60;99.90;;;;;;5053767;28;20609;-77
2023/11/06 09:36:39;;;;;;;0.40;0.40;;;13.50;99.90;;;;;;5053073;28;20462;-77
2023/11/06 09:39:09;;;;;;;0.60;0.40;;;13.20;99.90;;;;;;5054574;28;20821;-77
2023/11/06 09:41:36;;;;;;;0.30;0.30;;;13.00;99.90;;;;;;5054659;28;20430;-77
2023/11/06 09:44:03;;;;;;;0.30;0.30;;;12.60;99.90;;;;;;5053710;28;20438;-77
2023/11/06 09:46:31;;;;;;;0.30;0.30;;;12.80;99.90;;;;;;5055745;28;20468;-77
2023/11/06 09:49:05;;;;;;;0.30;0.30;;;12.90;99.90;;;;;;5057325;28;20508;-77
2023/11/06 09:51:34;;;;;;;1.17;0.63;;;13.00;99.90;;;;;;5057089;28;20489;-77
2023/11/06 09:54:08;;;;;;;1.77;0.37;;;12.90;99.90;;;;;;5057358;28;20445;-77
2023/11/06 09:56:38;;;;;;;0.30;0.27;;;12.50;99.90;;;;;;5065999;28;20504;-77
2023/11/06 09:59:05;;;;;;;0.40;0.40;;;12.30;99.90;;;;;;5056903;28;20800;-77
2023/11/06 10:01:33;;;;;;;0.40;0.37;;;12.30;99.90;;;;;;5056674;28;20953;-78
2023/11/06 10:04:01;;;;;;;0.40;0.40;;;12.30;99.90;;;;;;5056786;28;20440;-78
2023/11/06 10:06:28;;;;;;;0.40;0.30;;;12.50;99.90;;;;;;5056301;28;20539;-78
2023/11/06 10:08:55;;;;;;;1.40;0.63;;;12.50;99.90;;;;;;5056654;28;20849;-78
2023/11/06 10:11:25;;;;;;;0.30;0.27;;;12.50;99.90;;;;;;5056497;28;20496;-78
2023/11/06 10:13:54;;;;;;;0.40;0.37;;;12.40;99.90;;;;;;5056565;28;20446;-78
2023/11/06 10:16:23;;;;;;;0.67;0.67;;;12.60;99.90;;;;;;5056262;28;20488;-78
2023/11/06 10:18:50;;;;;;;0.33;0.33;;;12.70;99.90;;;;;;5056181;28;20472;-78
2023/11/06 10:21:28;;;;;;;1.67;0.50;;;12.70;99.90;;;;;;5056387;28;20442;-78
2023/11/06 10:23:59;;;;;;;0.30;0.30;;;12.50;99.90;;;;;;5056465;28;20426;-78
2023/11/06 10:26:29;;;;;;;0.30;0.30;;;12.30;99.90;;;;;;5056228;28;20528;-78
2023/11/06 10:29:10;;;;;;;0.30;0.20;;;12.30;99.90;;;;;;5056231;28;20433;-78
2023/11/06 10:31:39;;;;;;;0.50;0.30;;;12.20;99.90;;;;;;5056201;28;20465;-78
2023/11/06 10:34:26;;;;;;;1.27;0.50;;;12.20;99.90;;;;;;5056205;28;20922;-78
2023/11/06 10:37:09;;;;;;;0.70;0.50;;;12.10;99.90;;;;;;5056236;28;20464;-78
2023/11/06 10:39:38;;;;;;;0.63;0.30;;;12.20;99.90;;;;;;5056115;28;20552;-79
2023/11/06 10:42:07;;;;;;;1.80;0.30;;;12.30;99.90;;;;;;5056315;28;20438;-78
2023/11/06 10:44:37;;;;;;;0.50;0.50;;;12.20;99.90;;;;;;5055852;28;20964;-78
2023/11/06 10:47:09;;;;;;;0.30;0.30;;;12.20;99.90;;;;;;5055987;28;20441;-78
2023/11/06 10:49:37;;;;;;;0.40;0.30;;;12.30;99.90;;;;;;5055640;28;20964;-79
2023/11/06 10:52:06;;;;;;;0.30;0.23;;;12.30;99.90;;;;;;5055580;28;21101;-79
2023/11/06 10:54:35;;;;;;;8.33;0.30;;;12.20;99.90;;;;;;5055723;28;20545;-78
2023/11/06 10:57:02;;;;;;;0.83;0.30;;;12.10;99.90;;;;;;5054118;28;20444;-78
2023/11/06 10:59:31;;;;;;;0.30;0.30;;;12.00;99.90;;;;;;5055743;28;20456;-78
2023/11/06 11:01:59;;;;;;;0.40;0.30;;;11.80;99.90;;;;;;5055674;28;20434;-78
2023/11/06 11:04:28;;;;;;;0.30;0.30;;;11.80;99.90;;;;;;5055551;28;20453;-78
2023/11/06 11:06:56;;;;;;;0.40;0.30;;;11.80;99.90;;;;;;5055622;28;20472;-78
2023/11/06 11:09:24;;;;;;;1.60;0.40;;;11.80;99.90;;;;;;5055542;28;20449;-78
2023/11/06 11:11:52;;;;;;;0.30;0.30;;;11.80;99.90;;;;;;5055440;28;20477;-78
2023/11/06 11:14:19;;;;;;;0.40;0.40;;;11.90;99.90;;;;;;5055482;28;20445;-78
2023/11/06 11:16:50;;;;;;;0.30;0.30;;;11.90;99.90;;;;;;5054869;28;20481;-78
2023/11/06 11:19:27;;;;;;;0.30;0.30;;;11.90;99.90;;;;;;5055368;28;20525;-78
2023/11/06 11:22:06;;;;;;;0.47;0.40;;;11.80;99.90;;;;;;5055034;28;20934;-78
2023/11/06 11:24:50;;;;;;;0.30;0.30;;;11.80;99.90;;;;;;5055319;28;20825;-78
2023/11/06 11:27:18;;;;;;;0.40;0.30;;;11.80;99.90;;;;;;5055175;28;20454;-78
2023/11/06 11:30:04;;;;;;;0.30;0.30;;;11.80;99.90;;;;;;5055348;28;20441;-78
2023/11/06 11:32:47;;;;;;;0.30;0.30;;;11.70;99.90;;;;;;5054892;28;20437;-78
2023/11/06 11:36:01;;;;;;;0.30;0.20;;;11.80;99.90;;;;;;5055004;28;20836;-78
2023/11/06 11:38:38;;;;;;;0.30;0.20;;;11.80;99.90;;;;;;5055085;28;20430;-78
2023/11/06 11:41:15;;;;;;;0.60;0.50;;;11.80;99.90;;;;;;5054913;28;20430;-78
2023/11/06 11:43:44;;;;;;;0.40;0.30;;;12.00;99.90;;;;;;5054912;28;20437;-78
2023/11/06 11:46:35;;;;;;;1.43;0.30;;;12.10;99.90;;;;;;5054907;28;20473;-78
2023/11/06 11:49:02;;;;;;;0.47;0.40;;;12.30;99.90;;;;;;5045050;28;20450;-79
2023/11/06 11:51:50;;;;;;;0.30;0.20;;;12.40;99.90;;;;;;5055120;28;20482;-79
2023/11/06 11:54:29;;;;;;;0.40;0.40;;;12.50;99.90;;;;;;5055266;28;20449;-78
2023/11/06 11:56:56;;;;;;;0.40;0.40;;;12.50;99.90;;;;;;5054798;28;20942;-78
2023/11/06 11:59:24;;;;;;;3.20;0.40;;;12.50;99.90;;;;;;5054602;28;20477;-78
2023/11/06 12:01:51;;;;;;;0.30;0.30;;;12.50;99.90;;;;;;5054749;28;20437;-78
2023/11/06 12:04:20;;;;;;;0.30;0.30;;;12.50;99.90;;;;;;5054549;28;20442;-78
2023/11/06 12:06:48;;;;;;;0.30;0.20;;;12.40;99.90;;;;;;5055096;28;20544;-77
2023/11/06 12:09:15;;;;;;;0.30;0.23;;;12.20;99.90;;;;;;5055609;28;20496;-78
2023/11/06 12:11:46;;;;;;;1.70;0.30;;;12.30;99.90;;;;;;5056298;28;20484;-78
2023/11/06 12:14:13;;;;;;;0.30;0.30;;;12.40;99.90;;;;;;5055368;28;20493;-79
2023/11/06 12:16:50;;;;;;;0.57;0.30;;;12.50;99.90;;;;;;5053791;28;20524;-78
2023/11/06 12:19:17;;;;;;;0.50;0.37;;;12.60;99.90;;;;;;5054199;28;20437;-78
2023/11/06 12:21:45;;;;;;;0.77;0.40;;;12.60;99.90;;;;;;5053887;28;20453;-78
2023/11/06 12:24:12;;;;;;;0.30;0.30;;;12.70;99.90;;;;;;5054185;28;20492;-78
2023/11/06 12:26:52;;;;;;;0.40;0.30;;;12.60;99.90;;;;;;5054073;28;20512;-78
2023/11/06 12:29:27;;;;;;;0.30;0.30;;;12.50;99.90;;;;;;5054181;28;20430;-81
2023/11/06 12:31:54;;;;;;;0.30;0.20;;;12.50;99.90;;;;;;5053981;28;20527;-78
2023/11/06 12:34:21;;;;;;;0.30;0.20;;;12.50;99.90;;;;;;5053976;28;20430;-79
2023/11/06 12:36:48;;;;;;;0.30;0.30;;;12.60;99.90;;;;;;5053871;28;20488;-79
2023/11/06 12:39:28;;;;;;;0.30;0.30;;;12.60;99.90;;;;;;5053860;28;20449;-78
2023/11/06 12:42:00;;;;;;;0.30;0.27;;;12.50;99.90;;;;;;5053613;28;20446;-78
2023/11/06 12:44:38;;;;;;;0.30;0.30;;;12.50;99.90;;;;;;5053827;28;20429;-78
2023/11/06 12:47:08;;;;;;;0.40;0.30;;;12.40;99.90;;;;;;5053851;28;20505;-79
2023/11/06 12:49:51;;;;;;;0.30;0.23;;;12.40;99.90;;;;;;5053663;28;20445;-79
2023/11/06 12:52:19;;;;;;;0.30;0.20;;;12.40;99.90;;;;;;5053566;28;21013;-79
2023/11/06 12:54:49;;;;;;;0.47;0.40;;;12.40;99.90;;;;;;5053414;28;20858;-79
2023/11/06 12:57:18;;;;;;;0.30;0.20;;;12.50;99.90;;;;;;5053282;28;20521;-78
2023/11/06 12:59:46;;;;;;;0.30;0.30;;;12.60;99.90;;;;;;5053492;28;20520;-78
2023/11/06 13:02:13;;;;;;;0.30;0.20;;;12.50;99.90;;;;;;5053234;28;20857;-78
2023/11/06 13:04:40;;;;;;;0.70;0.30;;;12.50;99.90;;;;;;5053381;28;20442;-79
2023/11/06 13:07:08;;;;;;;0.30;0.20;;;12.20;99.90;;;;;;5053373;28;20442;-78
2023/11/06 13:09:35;;;;;;;0.30;0.30;;;12.20;99.90;;;;;;5053420;28;20504;-79
2023/11/06 13:12:03;;;;;;;0.30;0.30;;;12.20;99.90;;;;;;5053412;28;20481;-78
2023/11/06 13:14:31;;;;;;;0.30;0.20;;;12.20;99.90;;;;;;5053123;28;20548;-79
2023/11/06 13:17:04;;;;;;;0.30;0.30;;;12.00;99.90;;;;;;5053322;28;20465;-79
2023/11/06 13:19:32;;;;;;;0.30;0.30;;;12.00;99.90;;;;;;5052700;28;20473;-79
2023/11/06 13:21:59;;;;;;;0.30;0.30;;;12.00;99.90;;;;;;5052877;28;20445;-79
2023/11/06 13:24:28;;;;;;;2.60;0.50;;;12.10;99.90;;;;;;5053176;28;20440;-79
2023/11/06 13:26:56;;;;;;;0.30;0.20;;;12.10;99.90;;;;;;5053245;28;20449;-79
2023/11/06 13:29:24;;;;;;;0.30;0.20;;;12.10;99.90;;;;;;5053296;28;20453;-79
2023/11/06 13:31:52;;;;;;;0.30;0.30;;;12.10;99.90;;;;;;5052864;28;20989;-78
2023/11/06 13:34:19;;;;;;;0.40;0.40;;;12.20;99.90;;;;;;5052990;28;20505;-79
2023/11/06 13:36:49;;;;;;;0.30;0.30;;;12.00;99.90;;;;;;5053308;28;20418;-80
2023/11/06 13:39:20;;;;;;;1.50;0.37;;;12.10;99.90;;;;;;5053307;28;20444;-78
2023/11/06 13:41:49;;;;;;;0.30;0.20;;;12.00;99.90;;;;;;5053031;28;20515;-78
2023/11/06 13:44:16;;;;;;;0.40;0.30;;;11.90;99.90;;;;;;5053342;28;20465;-79
2023/11/06 13:46:43;;;;;;;0.40;0.37;;;11.80;99.90;;;;;;5052981;28;20465;-78
2023/11/06 13:49:12;;;;;;;0.30;0.30;;;11.80;99.90;;;;;;5052991;28;20445;-79
2023/11/06 13:51:42;;;;;;;2.23;0.30;;;11.80;99.90;;;;;;5052822;28;20873;-78
2023/11/06 13:54:21;;;;;;;0.30;0.30;;;11.70;99.90;;;;;;5053048;28;20480;-79
2023/11/06 13:56:52;;;;;;;0.30;0.30;;;11.70;99.90;;;;;;5052967;28;20490;-79
2023/11/06 13:59:28;;;;;;;0.30;0.20;;;11.80;99.90;;;;;;5052928;28;20906;-78
2023/11/06 14:02:00;;;;;;;0.40;0.30;;;11.80;99.90;;;;;;5052797;28;21016;-79
2023/11/06 14:04:35;;;;;;;0.40;0.40;;;11.80;99.90;;;;;;5053164;28;20446;-79
2023/11/06 14:07:04;;;;;;;0.30;0.20;;;11.70;99.90;;;;;;5053171;28;20442;-79
2023/11/06 14:09:39;;;;;;;0.30;0.30;;;11.70;99.90;;;;;;5052754;28;20930;-81
2023/11/06 14:12:10;;;;;;;0.30;0.30;;;11.60;99.90;;;;;;5052845;28;20958;-79
2023/11/06 14:14:38;;;;;;;0.30;0.20;;;11.70;99.90;;;;;;5052585;28;20430;-79
2023/11/06 14:17:05;;;;;;;1.57;0.30;;;11.70;99.90;;;;;;5058780;28;20422;-77
2023/11/06 14:19:34;;;;;;;0.30;0.30;;;11.80;99.90;;;;;;5054440;28;20460;-79
2023/11/06 14:22:05;;;;;;;0.30;0.30;;;11.80;99.90;;;;;;5055879;28;20434;-79
2023/11/06 14:24:32;;;;;;;0.30;0.20;;;11.70;99.90;;;;;;5052798;28;20449;-78
2023/11/06 14:27:00;;;;;;;0.40;0.30;;;11.70;99.90;;;;;;5052727;28;20452;-79